createdAt,value
2023-02-15T00:02:03.131Z,41.83
2023-02-15T00:04:47.747Z,43.70
2023-02-15T00:07:16.131Z,37.03
2023-02-15T00:12:10.774Z,35.65
2023-02-15T00:14:37.117Z,36.75
2023-02-15T00:17:04.823Z,30.02
2023-02-15T00:19:32.198Z,30.55
2023-02-15T00:21:58.817Z,34.50
2023-02-15T00:24:25.539Z,33.15
2023-02-15T00:26:51.938Z,33.42
2023-02-15T00:29:20.424Z,36.67
2023-02-15T00:34:23.887Z,40.30
2023-02-15T00:36:50.973Z,39.42
2023-02-15T00:39:18.326Z,36.85
2023-02-15T00:41:45.477Z,38.45
2023-02-15T00:44:12.197Z,35.58
2023-02-15T00:46:38.729Z,36.42
2023-02-15T00:49:06.109Z,36.60
2023-02-15T00:51:33.502Z,36.97
2023-02-15T00:53:59.801Z,37.67
2023-02-15T00:56:26.301Z,41.40
2023-02-15T00:58:52.641Z,36.10
2023-02-15T01:01:21.167Z,35.50
2023-02-15T01:03:48.013Z,34.38
2023-02-15T01:06:16.514Z,33.53
2023-02-15T01:11:12.093Z,36.95
2023-02-15T01:13:41.191Z,36.42
2023-02-15T01:16:08.397Z,35.88
2023-02-15T01:18:35.558Z,33.25
2023-02-15T01:21:14.882Z,38.28
2023-02-15T01:23:43.049Z,35.13
2023-02-15T01:26:10.519Z,35.85
2023-02-15T01:28:37.346Z,33.80
2023-02-15T01:31:12.052Z,34.67
2023-02-15T01:33:39.417Z,36.70
2023-02-15T01:36:07.311Z,39.47
2023-02-15T01:38:36.356Z,39.72
2023-02-15T01:41:23.694Z,38.17
2023-02-15T01:43:53.057Z,38.33
2023-02-15T01:46:23.482Z,35.28
2023-02-15T01:48:56.383Z,39.15
2023-02-15T01:51:26.973Z,35.63
2023-02-15T01:54:02.818Z,37.63
2023-02-15T01:56:34.268Z,35.05
2023-02-15T01:59:06.811Z,33.67
2023-02-15T02:01:33.254Z,32.85
2023-02-15T02:04:14.083Z,36.33
2023-02-15T02:06:40.970Z,35.63
2023-02-15T02:09:07.810Z,30.88
2023-02-15T02:11:35.611Z,32.92
2023-02-15T02:14:02.073Z,32.90
2023-02-15T02:16:31.433Z,31.38
2023-02-15T02:19:53.699Z,31.05
2023-02-15T02:22:58.023Z,34.75
2023-02-15T02:26:17.332Z,33.22
2023-02-15T02:29:05.277Z,33.47
2023-02-15T02:32:02.509Z,32.63
2023-02-15T02:34:47.372Z,32.37
2023-02-15T02:37:33.993Z,33.92
2023-02-15T02:40:14.213Z,38.30
2023-02-15T02:42:54.682Z,30.90
2023-02-15T02:45:25.881Z,32.50
2023-02-15T02:47:59.426Z,34.65
2023-02-15T02:50:30.785Z,31.58
2023-02-15T02:52:59.629Z,26.92
2023-02-15T02:55:39.868Z,30.50
2023-02-15T02:58:09.140Z,31.00
2023-02-15T03:00:43.913Z,32.58
2023-02-15T03:03:16.237Z,39.13
2023-02-15T03:05:46.000Z,33.25
2023-02-15T03:08:22.778Z,41.75
2023-02-15T03:10:53.456Z,33.22
2023-02-15T03:13:20.634Z,29.23
2023-02-15T03:16:06.343Z,29.25
2023-02-15T03:18:39.878Z,39.13
2023-02-15T03:21:10.458Z,32.75
2023-02-15T03:23:39.255Z,31.05
2023-02-15T03:26:10.463Z,33.33
2023-02-15T03:28:42.332Z,34.95
2023-02-15T03:31:11.067Z,33.65
2023-02-15T03:33:45.544Z,39.10
2023-02-15T03:36:26.635Z,28.42
2023-02-15T03:39:17.266Z,37.13
2023-02-15T03:41:51.338Z,39.58
2023-02-15T03:44:28.015Z,36.60
2023-02-15T03:47:16.831Z,34.75
2023-02-15T03:49:48.639Z,35.35
2023-02-15T03:52:16.957Z,29.98
2023-02-15T03:54:44.633Z,33.38
2023-02-15T03:57:36.360Z,30.58
2023-02-15T04:00:27.454Z,35.97
2023-02-15T04:03:16.584Z,33.22
2023-02-15T04:05:44.715Z,30.23
2023-02-15T04:08:13.081Z,36.45
2023-02-15T04:10:56.913Z,31.65
2023-02-15T04:13:30.595Z,30.48
2023-02-15T04:16:07.348Z,35.22
2023-02-15T04:18:55.846Z,34.77
2023-02-15T04:21:42.331Z,36.55
2023-02-15T04:24:28.199Z,35.58
2023-02-15T04:26:55.500Z,27.80
2023-02-15T04:29:23.045Z,32.13
2023-02-15T04:31:50.487Z,28.83
2023-02-15T04:34:17.169Z,29.13
2023-02-15T04:36:45.245Z,32.75
2023-02-15T04:39:14.787Z,27.80
2023-02-15T04:41:41.511Z,31.90
2023-02-15T04:44:10.956Z,32.28
2023-02-15T04:49:04.927Z,32.55
2023-02-15T04:51:31.660Z,29.92
2023-02-15T04:53:58.051Z,31.13
2023-02-15T04:56:24.446Z,37.58
2023-02-15T04:58:51.010Z,33.17
2023-02-15T05:01:18.436Z,30.90
2023-02-15T05:03:44.914Z,31.67
2023-02-15T05:06:11.285Z,31.25
2023-02-15T05:08:37.936Z,30.52
2023-02-15T05:11:04.544Z,34.25
2023-02-15T05:13:31.157Z,33.28
2023-02-15T05:15:57.675Z,30.80
2023-02-15T05:18:24.185Z,31.48
2023-02-15T05:20:50.693Z,34.25
2023-02-15T05:23:17.314Z,33.78
2023-02-15T05:26:10.129Z,34.72
2023-02-15T05:28:38.134Z,35.35
2023-02-15T05:31:18.099Z,35.22
2023-02-15T05:33:45.438Z,27.50
2023-02-15T05:36:12.138Z,33.50
2023-02-15T05:38:39.511Z,31.60
2023-02-15T05:41:10.470Z,29.73
2023-02-15T05:43:37.915Z,31.05
2023-02-15T05:46:06.717Z,28.67
2023-02-15T05:48:33.970Z,33.22
2023-02-15T05:51:05.440Z,33.05
2023-02-15T05:53:34.858Z,34.72
2023-02-15T05:56:03.633Z,33.55
2023-02-15T05:58:39.718Z,37.35
2023-02-15T06:01:13.751Z,31.35
2023-02-15T06:03:40.342Z,28.27
2023-02-15T06:06:07.595Z,40.15
2023-02-15T06:08:35.595Z,39.17
2023-02-15T06:11:02.341Z,34.65
2023-02-15T06:13:29.353Z,33.97
2023-02-15T06:15:56.002Z,37.35
2023-02-15T06:18:22.518Z,32.90
2023-02-15T06:20:49.615Z,29.67
2023-02-15T06:23:16.306Z,32.80
2023-02-15T06:25:42.972Z,30.92
2023-02-15T06:28:09.296Z,35.95
2023-02-15T06:30:35.921Z,42.28
2023-02-15T06:33:02.302Z,33.42
2023-02-15T06:35:28.939Z,34.80
2023-02-15T06:37:55.542Z,35.15
2023-02-15T06:40:22.029Z,37.55
2023-02-15T06:42:50.025Z,34.60
2023-02-15T06:45:16.643Z,47.85
2023-02-15T06:47:44.006Z,39.63
2023-02-15T06:50:11.436Z,33.63
2023-02-15T06:52:37.834Z,39.80
2023-02-15T06:55:04.487Z,38.78
2023-02-15T06:57:31.002Z,38.60
2023-02-15T06:59:59.292Z,44.20
2023-02-15T07:02:25.790Z,39.83
2023-02-15T07:04:52.429Z,36.70
2023-02-15T07:07:18.779Z,36.75
2023-02-15T07:09:45.160Z,35.55
2023-02-15T07:12:30.252Z,37.15
2023-02-15T07:14:57.070Z,38.70
2023-02-15T07:17:39.007Z,46.75
2023-02-15T07:20:08.780Z,39.08
2023-02-15T07:22:37.378Z,43.47
2023-02-15T07:25:05.554Z,43.33
2023-02-15T07:27:32.868Z,34.20
2023-02-15T07:30:00.459Z,33.78
2023-02-15T07:32:31.704Z,44.97
2023-02-15T07:34:58.467Z,42.30
2023-02-15T07:37:26.280Z,35.53
2023-02-15T07:39:53.072Z,47.72
2023-02-15T07:42:20.947Z,36.78
2023-02-15T07:44:50.380Z,42.42
2023-02-15T07:47:17.004Z,48.22
2023-02-15T07:49:43.519Z,41.58
2023-02-15T07:52:09.923Z,45.25
2023-02-15T07:54:36.618Z,42.35
2023-02-15T07:57:03.241Z,40.65
2023-02-15T07:59:29.890Z,42.25
2023-02-15T08:01:57.370Z,36.15
2023-02-15T08:04:24.332Z,37.83
2023-02-15T08:06:54.256Z,49.70
2023-02-15T08:09:21.495Z,41.83
2023-02-15T08:11:48.187Z,38.50
2023-02-15T08:14:17.398Z,45.33
2023-02-15T08:16:48.273Z,44.65
2023-02-15T08:19:19.292Z,45.78
2023-02-15T08:21:48.263Z,53.45
2023-02-15T08:24:16.233Z,43.53
2023-02-15T08:26:43.727Z,55.50
2023-02-15T08:29:10.527Z,41.72
2023-02-15T08:31:38.510Z,42.30
2023-02-15T08:34:05.841Z,44.33
2023-02-15T08:36:34.837Z,47.80
2023-02-15T08:39:04.023Z,42.97
2023-02-15T08:41:37.625Z,45.13
2023-02-15T08:44:08.593Z,52.15
2023-02-15T08:46:37.446Z,53.63
2023-02-15T08:49:05.680Z,49.83
2023-02-15T08:51:35.150Z,50.13
2023-02-15T08:54:06.785Z,42.70
2023-02-15T08:56:36.074Z,52.60
2023-02-15T08:59:03.457Z,46.35
2023-02-15T09:01:32.183Z,48.20
2023-02-15T09:04:05.065Z,44.38
2023-02-15T09:06:31.773Z,50.33
2023-02-15T09:08:58.346Z,47.58
2023-02-15T09:11:28.604Z,47.50
2023-02-15T09:14:01.564Z,47.00
2023-02-15T09:16:30.455Z,50.60
2023-02-15T09:18:58.935Z,50.63
2023-02-15T09:21:26.920Z,51.30
2023-02-15T09:24:01.989Z,49.20
2023-02-15T09:26:30.926Z,50.42
2023-02-15T09:29:01.624Z,48.40
2023-02-15T09:31:30.963Z,49.20
2023-02-15T09:34:00.044Z,42.65
2023-02-15T09:36:29.321Z,53.72
2023-02-15T09:38:58.408Z,49.08
2023-02-15T09:41:43.576Z,45.15
2023-02-15T09:44:25.212Z,49.53
2023-02-15T09:47:21.047Z,46.10
2023-02-15T09:50:24.831Z,49.75
2023-02-15T09:53:16.181Z,48.03
2023-02-15T09:55:52.289Z,54.05
2023-02-15T09:59:06.886Z,52.40
2023-02-15T10:01:40.622Z,47.25
2023-02-15T10:04:41.447Z,46.85
2023-02-15T10:07:39.437Z,38.55
2023-02-15T10:10:41.235Z,45.05
2023-02-15T10:13:46.367Z,49.60
2023-02-15T10:17:03.420Z,41.25
2023-02-15T10:20:20.662Z,40.37
2023-02-15T10:22:53.092Z,40.30
2023-02-15T10:25:36.561Z,37.30
2023-02-15T10:28:07.431Z,35.78
2023-02-15T10:30:45.946Z,38.25
2023-02-15T10:33:37.055Z,35.08
2023-02-15T10:36:06.454Z,33.47
2023-02-15T10:38:55.564Z,37.95
2023-02-15T10:41:35.431Z,39.40
2023-02-15T10:44:41.414Z,38.35
2023-02-15T10:47:31.705Z,33.72
2023-02-15T10:50:01.128Z,33.20
2023-02-15T10:52:56.613Z,37.13
2023-02-15T10:55:53.081Z,36.00
2023-02-15T10:58:41.643Z,36.58
2023-02-15T11:01:31.724Z,31.50
2023-02-15T11:04:26.143Z,34.53
2023-02-15T11:07:00.984Z,34.50
2023-02-15T11:09:39.681Z,34.42
2023-02-15T11:12:12.620Z,30.70
2023-02-15T11:14:55.111Z,36.63
2023-02-15T11:17:36.362Z,32.67
2023-02-15T11:20:23.906Z,32.22
2023-02-15T11:22:52.057Z,36.35
2023-02-15T11:25:23.293Z,35.75
2023-02-15T11:27:51.357Z,28.85
2023-02-15T11:30:24.483Z,33.42
2023-02-15T11:32:58.071Z,35.10
2023-02-15T11:35:51.882Z,31.55
2023-02-15T11:38:32.307Z,30.48
2023-02-15T11:41:20.854Z,32.92
2023-02-15T11:44:12.182Z,30.38
2023-02-15T11:46:39.315Z,31.77
2023-02-15T11:49:27.183Z,30.35
2023-02-15T11:51:54.442Z,32.15
2023-02-15T11:54:27.105Z,36.75
2023-02-15T11:56:54.256Z,30.17
2023-02-15T11:59:30.913Z,27.95
2023-02-15T12:01:57.477Z,29.23
2023-02-15T12:04:42.303Z,26.50
2023-02-15T12:07:16.901Z,28.90
2023-02-15T12:09:57.450Z,28.13
2023-02-15T12:12:27.012Z,35.65
2023-02-15T12:14:57.378Z,23.20
2023-02-15T12:17:40.520Z,27.88
2023-02-15T12:20:15.832Z,23.13
2023-02-15T12:23:03.980Z,21.98
2023-02-15T12:25:37.448Z,25.63
2023-02-15T12:28:17.773Z,29.48
2023-02-15T12:30:44.632Z,27.33
2023-02-15T12:33:24.042Z,26.65
2023-02-15T12:35:58.425Z,26.60
2023-02-15T12:38:26.481Z,21.98
2023-02-15T12:41:22.029Z,28.77
2023-02-15T12:43:48.636Z,28.67
2023-02-15T12:46:24.593Z,25.55
2023-02-15T12:49:21.344Z,25.13
2023-02-15T12:51:52.721Z,23.38
2023-02-15T12:54:37.777Z,26.88
2023-02-15T12:57:36.490Z,23.53
2023-02-15T13:00:21.869Z,28.27
2023-02-15T13:02:52.784Z,27.30
2023-02-15T13:05:39.479Z,26.13
2023-02-15T13:08:16.372Z,25.83
2023-02-15T13:10:54.641Z,26.95
2023-02-15T13:13:25.299Z,27.20
2023-02-15T13:15:55.074Z,31.10
2023-02-15T13:18:31.878Z,29.70
2023-02-15T13:21:13.546Z,31.85
2023-02-15T13:23:49.289Z,28.13
2023-02-15T13:26:23.533Z,27.23
2023-02-15T13:28:54.450Z,27.45
2023-02-15T13:31:24.640Z,30.25
2023-02-15T13:33:56.062Z,24.13
2023-02-15T13:36:45.358Z,22.23
2023-02-15T13:39:22.126Z,24.90
2023-02-15T13:42:06.857Z,30.35
2023-02-15T13:44:52.890Z,17.40
2023-02-15T13:47:51.333Z,20.33
2023-02-15T13:50:37.204Z,17.05
2023-02-15T13:53:23.963Z,28.60
2023-02-15T13:56:06.721Z,17.42
2023-02-15T13:58:53.990Z,14.90
2023-02-15T14:01:32.111Z,20.73
2023-02-15T14:04:15.123Z,22.38
2023-02-15T14:06:50.961Z,18.20
2023-02-15T14:09:44.084Z,20.98
2023-02-15T14:12:34.222Z,15.95
2023-02-15T14:15:29.210Z,16.45
2023-02-15T14:18:16.129Z,16.90
2023-02-15T14:20:46.685Z,18.02
2023-02-15T14:23:30.626Z,17.52
2023-02-15T14:26:23.204Z,17.55
2023-02-15T14:29:12.568Z,17.88
2023-02-15T14:31:47.013Z,21.27
2023-02-15T14:34:31.321Z,20.45
2023-02-15T14:36:58.753Z,17.20
2023-02-15T14:39:55.761Z,18.42
2023-02-15T14:42:32.109Z,20.20
2023-02-15T14:45:06.195Z,30.52
2023-02-15T14:47:39.547Z,19.98
2023-02-15T14:50:46.198Z,22.33
2023-02-15T14:53:28.661Z,19.85
2023-02-15T14:56:18.962Z,27.92
2023-02-15T14:58:52.510Z,23.27
2023-02-15T15:01:33.780Z,21.35
2023-02-15T15:04:05.465Z,18.65
2023-02-15T15:06:38.366Z,22.73
2023-02-15T15:09:20.845Z,18.10
2023-02-15T15:11:49.261Z,21.98
2023-02-15T15:14:35.619Z,20.13
2023-02-15T15:17:06.783Z,18.33
2023-02-15T15:19:52.834Z,17.58
2023-02-15T15:22:26.760Z,21.00
2023-02-15T15:25:05.622Z,20.27
2023-02-15T15:27:54.089Z,18.63
2023-02-15T15:30:23.509Z,19.45
2023-02-15T15:32:56.056Z,21.05
2023-02-15T15:35:31.147Z,29.70
2023-02-15T15:38:16.203Z,20.13
2023-02-15T15:41:24.564Z,24.42
2023-02-15T15:44:09.474Z,20.05
2023-02-15T15:47:10.444Z,22.92
2023-02-15T15:49:38.997Z,26.15
2023-02-15T15:54:43.912Z,20.55
2023-02-15T15:57:40.208Z,27.95
2023-02-15T16:00:31.697Z,21.88
2023-02-15T16:02:58.320Z,22.10
2023-02-15T16:05:24.920Z,40.70
2023-02-15T16:07:51.468Z,25.08
2023-02-15T16:10:28.967Z,29.70
2023-02-15T16:12:56.540Z,27.08
2023-02-15T16:15:36.283Z,27.67
2023-02-15T16:18:03.215Z,26.65
2023-02-15T16:20:36.839Z,26.02
2023-02-15T16:23:21.410Z,25.48
2023-02-15T16:26:19.245Z,29.35
2023-02-15T16:28:53.673Z,27.23
2023-02-15T16:31:23.252Z,26.67
2023-02-15T16:33:54.379Z,27.67
2023-02-15T16:36:28.699Z,32.85
2023-02-15T16:38:58.327Z,17.25
2023-02-15T16:41:29.948Z,20.30
2023-02-15T16:44:13.973Z,29.35
2023-02-15T16:46:44.541Z,38.25
2023-02-15T16:49:23.974Z,44.55
2023-02-15T16:52:01.159Z,32.67
2023-02-15T16:54:29.996Z,25.83
2023-02-15T16:56:59.797Z,36.42
2023-02-15T16:59:40.111Z,33.08
2023-02-15T17:02:23.611Z,27.80
2023-02-15T17:05:14.628Z,36.53
2023-02-15T17:07:43.628Z,34.45
2023-02-15T17:10:37.167Z,33.05
2023-02-15T17:13:11.211Z,22.13
2023-02-15T17:15:40.682Z,36.42
2023-02-15T17:18:22.710Z,23.13
2023-02-15T17:20:53.284Z,30.92
2023-02-15T17:23:31.528Z,25.42
2023-02-15T17:26:01.529Z,27.23
2023-02-15T17:28:31.458Z,22.08
2023-02-15T17:30:59.409Z,24.90
2023-02-15T17:33:33.857Z,23.17
2023-02-15T17:36:16.907Z,25.92
2023-02-15T17:38:58.367Z,27.95
2023-02-15T17:41:24.948Z,36.30
2023-02-15T17:43:51.377Z,39.72
2023-02-15T17:46:19.824Z,36.08
2023-02-15T17:48:49.064Z,42.05
2023-02-15T17:51:17.086Z,28.80
2023-02-15T17:54:06.798Z,31.92
2023-02-15T17:56:37.982Z,28.17
2023-02-15T17:59:08.071Z,32.50
2023-02-15T18:01:55.945Z,36.97
2023-02-15T18:04:41.743Z,25.05
2023-02-15T18:07:28.945Z,30.45
2023-02-15T18:10:14.034Z,25.65
2023-02-15T18:12:40.798Z,28.50
2023-02-15T18:15:10.896Z,25.70
2023-02-15T18:17:42.661Z,24.67
2023-02-15T18:20:24.232Z,29.25
2023-02-15T18:22:52.165Z,24.75
2023-02-15T18:25:21.104Z,36.72
2023-02-15T18:27:47.466Z,28.25
2023-02-15T18:30:15.985Z,33.85
2023-02-15T18:35:16.470Z,36.42
2023-02-15T18:37:45.370Z,29.17
2023-02-15T18:40:23.625Z,31.00
2023-02-15T18:42:50.084Z,30.90
2023-02-15T18:45:25.211Z,34.70
2023-02-15T18:47:51.694Z,39.65
2023-02-15T18:50:20.824Z,32.95
2023-02-15T18:52:50.901Z,34.35
2023-02-15T18:55:32.436Z,37.10
2023-02-15T18:57:59.412Z,32.70
2023-02-15T19:00:33.924Z,37.40
2023-02-15T19:03:02.844Z,34.30
2023-02-15T19:05:31.795Z,32.03
2023-02-15T19:08:01.546Z,31.73
2023-02-15T19:10:31.187Z,32.42
2023-02-15T19:12:57.838Z,32.95
2023-02-15T19:15:30.686Z,32.05
2023-02-15T19:17:57.405Z,27.23
2023-02-15T19:20:27.965Z,31.38
2023-02-15T19:22:56.402Z,26.27
2023-02-15T19:25:28.346Z,28.38
2023-02-15T19:27:56.273Z,28.33
2023-02-15T19:30:30.095Z,32.67
2023-02-15T19:32:58.525Z,40.90
2023-02-15T19:35:28.967Z,36.78
2023-02-15T19:38:00.366Z,35.50
2023-02-15T19:40:30.865Z,38.58
2023-02-15T19:42:59.726Z,38.13
2023-02-15T19:45:28.665Z,36.95
2023-02-15T19:47:55.230Z,48.83
2023-02-15T19:50:25.990Z,48.25
2023-02-15T19:52:54.409Z,44.30
2023-02-15T19:55:25.493Z,43.03
2023-02-15T19:57:53.057Z,36.88
2023-02-15T20:00:22.802Z,31.10
2023-02-15T20:02:49.606Z,32.53
2023-02-15T20:05:16.125Z,36.97
2023-02-15T20:07:47.002Z,34.03
2023-02-15T20:10:19.945Z,30.88
2023-02-15T20:12:47.582Z,32.33
2023-02-15T20:15:27.592Z,29.05
2023-02-15T20:17:54.288Z,33.88
2023-02-15T20:20:26.914Z,32.28
2023-02-15T20:22:55.265Z,39.10
2023-02-15T20:25:26.817Z,43.08
2023-02-15T20:27:53.838Z,36.88
2023-02-15T20:30:22.204Z,37.55
2023-02-15T20:32:49.021Z,38.13
2023-02-15T20:35:19.369Z,39.80
2023-02-15T20:37:47.708Z,37.38
2023-02-15T20:40:27.829Z,36.85
2023-02-15T20:42:56.284Z,38.70
2023-02-15T20:45:29.147Z,40.60
2023-02-15T20:47:56.009Z,35.25
2023-02-15T20:50:34.057Z,37.75
2023-02-15T20:53:02.589Z,35.13
2023-02-15T20:57:57.958Z,36.63
2023-02-15T21:00:31.163Z,37.70
2023-02-15T21:02:59.852Z,37.60
2023-02-15T21:05:33.130Z,35.75
2023-02-15T21:08:00.429Z,36.47
2023-02-15T21:10:33.211Z,37.33
2023-02-15T21:13:01.174Z,34.85
2023-02-15T21:15:33.648Z,37.55
2023-02-15T21:18:06.201Z,39.17
2023-02-15T21:20:35.304Z,41.55
2023-02-15T21:23:05.031Z,41.00
2023-02-15T21:25:38.151Z,43.60
2023-02-15T21:28:09.786Z,39.83
2023-02-15T21:30:36.176Z,44.65
2023-02-15T21:33:02.851Z,45.90
2023-02-15T21:35:29.412Z,39.70
2023-02-15T21:37:56.262Z,38.50
2023-02-15T21:40:28.954Z,41.35
2023-02-15T21:43:14.695Z,34.00
2023-02-15T21:45:59.952Z,40.42
2023-02-15T21:48:26.372Z,42.35
2023-02-15T21:51:11.516Z,35.92
2023-02-15T21:53:43.719Z,42.70
2023-02-15T21:56:13.811Z,40.95
2023-02-15T21:58:40.284Z,40.25
2023-02-15T22:01:07.423Z,44.00
2023-02-15T22:03:38.107Z,46.28
2023-02-15T22:06:08.398Z,43.33
2023-02-15T22:08:34.953Z,43.42
2023-02-15T22:11:01.749Z,45.10
2023-02-15T22:13:31.735Z,44.67
2023-02-15T22:15:58.690Z,40.22
2023-02-15T22:18:28.238Z,40.42
2023-02-15T22:20:55.687Z,43.63
2023-02-15T22:23:23.135Z,39.40
2023-02-15T22:25:56.029Z,39.60
2023-02-15T22:28:43.467Z,44.88
2023-02-15T22:31:16.403Z,41.40
2023-02-15T22:33:44.760Z,45.15
2023-02-15T22:36:23.412Z,41.95
2023-02-15T22:38:49.903Z,42.58
2023-02-15T22:41:17.133Z,45.15
2023-02-15T22:43:46.123Z,40.13
2023-02-15T22:46:19.049Z,37.20
2023-02-15T22:48:50.081Z,45.47
2023-02-15T22:51:19.942Z,36.22
2023-02-15T22:53:49.418Z,43.38
2023-02-15T22:56:20.019Z,43.47
2023-02-15T22:58:49.404Z,47.17
2023-02-15T23:01:29.669Z,46.05
2023-02-15T23:03:56.417Z,46.83
2023-02-15T23:06:22.896Z,40.28
2023-02-15T23:08:49.480Z,45.85
2023-02-15T23:11:16.911Z,47.92
2023-02-15T23:13:43.246Z,45.38
2023-02-15T23:16:15.638Z,43.20
2023-02-15T23:18:44.140Z,41.58
2023-02-15T23:21:20.696Z,48.72
2023-02-15T23:23:50.387Z,44.63
2023-02-15T23:26:23.419Z,43.25
2023-02-15T23:28:51.516Z,43.13
2023-02-15T23:31:27.372Z,49.25
2023-02-15T23:33:54.834Z,46.42
2023-02-15T23:36:36.795Z,41.65
2023-02-15T23:39:41.834Z,48.65
2023-02-15T23:42:13.901Z,43.10
2023-02-15T23:44:42.938Z,46.65
2023-02-15T23:47:20.715Z,40.90
2023-02-15T23:49:47.486Z,45.13
2023-02-15T23:52:13.991Z,42.88
2023-02-15T23:54:40.346Z,45.60
2023-02-15T23:57:06.918Z,44.75
2023-02-15T23:59:33.279Z,45.25
